Time;durP1;ratioP1;P1;durP2;ratioP2;P2;SDS_P1;SDS_P2;PMS_P1;PMS_P2;Temp;Humidity;BMP_temperature;BMP_pressure;BME280_temperature;BME280_humidity;BME280_pressure;Samples;Min_cycle;Max_cycle;Signal;HPM_P1;HPM_P2
2023/01/10 00:01:42;;;;;;;0.63;0.63;;;6.20;72.00;;;1.33;100.00;95369.63;4963171;28;20034;-54
2023/01/10 00:04:08;;;;;;;2.05;0.82;;;6.20;72.10;;;1.38;100.00;95375.84;4987850;28;20029;-59
2023/01/10 00:06:37;;;;;;;1.05;0.70;;;6.20;72.00;;;1.41;100.00;95384.31;4994794;28;20495;-54
2023/01/10 00:09:03;;;;;;;0.75;0.60;;;6.20;72.10;;;1.39;100.00;95385.31;5011279;28;20041;-59
2023/01/10 00:14:22;;;;;;;4.05;1.10;;;6.30;72.10;;;1.33;100.00;95399.28;4991074;28;20561;-56
2023/01/10 00:16:55;;;;;;;1.05;0.73;;;6.20;72.10;;;1.29;100.00;95399.94;4989029;28;20025;-54
2023/01/10 00:19:24;;;;;;;1.25;0.77;;;6.20;72.10;;;1.34;100.00;95405.34;4990035;28;20026;-53
2023/01/10 00:21:53;;;;;;;1.83;0.85;;;6.20;72.10;;;1.36;100.00;95405.94;4959667;28;20405;-54
2023/01/10 00:24:19;;;;;;;2.80;1.20;;;6.20;72.10;;;1.27;100.00;95404.59;4970613;28;20053;-52
2023/01/10 00:26:51;;;;;;;2.08;1.13;;;6.30;72.30;;;1.33;100.00;95412.41;4970444;28;20034;-56
2023/01/10 00:29:28;;;;;;;2.08;1.00;;;6.20;72.20;;;1.34;100.00;95411.38;4969514;28;20492;-55
2023/01/10 00:32:00;;;;;;;2.42;1.23;;;6.20;72.30;;;1.31;100.00;95406.56;4969901;28;20034;-54
2023/01/10 00:34:26;;;;;;;1.83;1.02;;;6.20;72.40;;;1.37;100.00;95421.47;4970458;28;20037;-54
2023/01/10 00:36:55;;;;;;;4.63;1.25;;;6.30;72.40;;;1.38;100.00;95419.66;4959552;28;20034;-54
2023/01/10 00:39:26;;;;;;;1.75;1.38;;;6.30;72.40;;;1.42;100.00;95438.44;4953342;28;20436;-53
2023/01/10 00:44:38;;;;;;;3.92;1.30;;;6.20;72.40;;;1.44;100.00;95441.63;4970756;28;20048;-55
2023/01/10 00:47:05;;;;;;;3.22;1.10;;;6.30;72.50;;;1.45;100.00;95445.88;4969793;28;20022;-52
2023/01/10 00:49:39;;;;;;;4.55;1.30;;;6.30;72.60;;;1.50;100.00;95459.97;4971145;28;20022;-54
2023/01/10 00:52:08;;;;;;;9.15;1.40;;;6.40;72.70;;;1.51;100.00;95453.72;4968695;28;20813;-53
2023/01/10 00:54:34;;;;;;;3.70;1.30;;;6.40;72.70;;;1.50;100.00;95454.72;4953885;28;20378;-53
2023/01/10 00:57:03;;;;;;;3.72;1.30;;;6.30;72.50;;;1.51;100.00;95463.41;4969566;28;20079;-53
2023/01/10 00:59:29;;;;;;;6.75;1.30;;;6.40;72.60;;;1.51;100.00;95471.28;4968647;28;20472;-53
2023/01/10 01:02:01;;;;;;;3.78;1.27;;;6.40;72.70;;;1.55;100.00;95475.91;4969077;28;20121;-52
2023/01/10 01:04:53;;;;;;;5.83;1.40;;;6.40;72.80;;;1.61;100.00;95482.13;4953004;28;20026;-54
2023/01/10 01:07:18;;;;;;;2.25;1.10;;;6.50;72.80;;;1.65;100.00;95483.31;4950598;28;20902;-53
2023/01/10 01:12:34;;;;;;;2.30;1.23;;;6.50;72.80;;;1.69;100.00;95492.38;4962072;28;20056;-54
2023/01/10 01:15:07;;;;;;;3.20;1.42;;;6.50;72.70;;;1.72;100.00;95499.84;4953478;28;20553;-53
2023/01/10 01:17:46;;;;;;;;;;;6.50;72.70;;;1.73;100.00;95509.34;4969297;28;20038;-52
2023/01/10 01:20:15;;;;;;;6.90;1.80;;;6.50;72.60;;;1.72;100.00;95512.97;4968996;28;20000;-53
2023/01/10 01:22:41;;;;;;;8.82;2.10;;;6.60;72.70;;;1.70;100.00;95520.25;4969855;28;20034;-55
2023/01/10 01:25:16;;;;;;;7.25;1.65;;;6.60;72.70;;;1.73;100.00;95524.28;4970637;28;20112;-53
2023/01/10 01:27:41;;;;;;;7.03;1.90;;;6.60;72.70;;;1.77;100.00;95533.34;4969529;28;20162;-54
2023/01/10 01:30:10;;;;;;;3.80;1.52;;;6.60;72.80;;;1.79;100.00;95540.00;4968308;28;20026;-54
2023/01/10 01:32:37;;;;;;;5.60;1.80;;;6.60;72.80;;;1.79;100.00;95545.28;4969496;28;20045;-53
2023/01/10 01:35:04;;;;;;;3.45;1.77;;;6.60;72.80;;;1.82;100.00;95557.19;4969455;28;20109;-55
2023/01/10 01:37:30;;;;;;;7.45;1.70;;;6.60;72.80;;;1.85;100.00;95567.28;4968929;28;20113;-55
2023/01/10 01:39:56;;;;;;;4.68;1.90;;;6.70;72.90;;;1.85;100.00;95569.91;4969133;28;20026;-58
2023/01/10 01:42:35;;;;;;;4.25;1.70;;;6.70;72.90;;;1.90;100.00;95571.88;4967677;28;20079;-58
2023/01/10 01:45:13;;;;;;;6.50;1.90;;;6.70;72.90;;;1.92;100.00;95583.00;4969658;28;20018;-58
2023/01/10 01:48:35;;;;;;;4.88;1.98;;;6.70;73.00;;;1.97;100.00;95591.84;4963596;28;20036;-55
2023/01/10 01:51:26;;;;;;;8.18;1.88;;;6.80;73.10;;;1.96;100.00;95592.06;4953933;28;20042;-58
2023/01/10 01:54:06;;;;;;;7.55;1.73;;;6.80;73.20;;;1.96;100.00;95607.81;4974422;28;20125;-58
2023/01/10 01:56:46;;;;;;;4.97;1.60;;;6.80;73.10;;;1.98;100.00;95611.06;4950248;29;20026;-55
2023/01/10 01:59:23;;;;;;;6.40;1.33;;;6.80;73.20;;;2.03;100.00;95622.53;4959940;28;20428;-58
2023/01/10 02:02:01;;;;;;;6.05;1.60;;;6.80;73.10;;;2.05;100.00;95623.13;4968876;28;20029;-58
2023/01/10 02:04:55;;;;;;;6.63;1.90;;;6.80;73.20;;;2.05;100.00;95628.38;4971943;28;20034;-58
2023/01/10 02:07:55;;;;;;;6.38;1.48;;;6.90;73.20;;;2.06;100.00;95630.00;4973898;28;20409;-58
2023/01/10 02:10:42;;;;;;;5.15;1.42;;;6.90;73.20;;;2.06;100.00;95631.81;4942240;28;20030;-58
2023/01/10 02:13:18;;;;;;;5.88;1.60;;;6.90;73.20;;;2.14;100.00;95633.41;4956415;28;20048;-58
2023/01/10 02:15:44;;;;;;;6.20;1.67;;;6.90;73.20;;;2.12;100.00;95638.88;4972934;28;20116;-56
2023/01/10 02:18:13;;;;;;;4.68;1.50;;;6.90;73.10;;;2.06;100.00;95637.06;4972902;28;20556;-58
2023/01/10 02:21:39;;;;;;;10.00;1.92;;;6.90;73.10;;;2.05;100.00;95638.91;4972407;28;20050;-58
2023/01/10 02:25:09;;;;;;;5.82;1.50;;;6.90;73.00;;;2.06;100.00;95645.75;4971630;28;20042;-58
2023/01/10 02:28:28;;;;;;;7.30;1.27;;;6.90;73.10;;;2.07;100.00;95660.53;4972522;28;20084;-58
2023/01/10 02:32:33;;;;;;;8.40;1.33;;;6.90;73.30;;;2.18;100.00;95669.56;4970360;28;20034;-57
2023/01/10 02:36:03;;;;;;;6.53;1.30;;;6.90;73.10;;;2.16;100.00;95666.31;4884627;29;20043;-57
2023/01/10 02:39:27;;;;;;;6.45;1.30;;;6.90;73.20;;;2.19;100.00;95680.88;4885616;28;20094;-56
2023/01/10 02:42:03;;;;;;;;;;;6.90;73.40;;;2.21;100.00;95690.16;4965798;28;20022;-58
2023/01/10 02:45:03;;;;;;;8.73;1.30;;;6.90;73.10;;;2.19;100.00;95686.13;4973046;28;19909;-58
2023/01/10 02:47:47;;;;;;;10.07;1.30;;;7.00;73.10;;;2.20;100.00;95685.13;4970603;28;20080;-56
2023/01/10 02:50:42;;;;;;;10.02;1.33;;;7.00;73.00;;;2.20;100.00;95695.66;4971260;28;20389;-60
2023/01/10 02:53:40;;;;;;;13.45;1.33;;;7.00;73.00;;;2.18;100.00;95692.41;4971751;28;20045;-58
2023/01/10 02:57:08;;;;;;;7.53;1.40;;;7.00;72.90;;;2.13;100.00;95693.06;4958481;28;20034;-53
2023/01/10 03:00:13;;;;;;;8.38;1.30;;;7.00;72.80;;;2.11;100.00;95702.97;4963889;28;20057;-58
2023/01/10 03:03:46;;;;;;;9.13;1.38;;;7.00;72.80;;;2.15;100.00;95698.88;4963236;28;20392;-58
2023/01/10 03:06:45;;;;;;;7.88;1.20;;;7.00;72.80;;;2.13;100.00;95711.44;4970809;28;20376;-56
2023/01/10 03:09:59;;;;;;;8.82;1.30;;;7.00;72.80;;;2.09;100.00;95711.03;4971313;28;20160;-58
2023/01/10 03:12:41;;;;;;;11.68;1.52;;;7.00;72.70;;;2.11;100.00;95720.56;4970607;28;20045;-57
2023/01/10 03:15:17;;;;;;;8.18;1.30;;;7.00;72.80;;;2.14;100.00;95728.81;4970640;28;20504;-57
2023/01/10 03:17:54;;;;;;;5.18;1.50;;;7.00;72.70;;;2.09;100.00;95734.69;4970441;28;20034;-57
2023/01/10 03:20:31;;;;;;;7.10;1.85;;;7.00;72.60;;;2.14;100.00;95738.53;4970859;28;20117;-57
2023/01/10 03:23:04;;;;;;;8.38;1.25;;;7.00;72.50;;;2.08;100.00;95742.78;4953573;28;20481;-56
2023/01/10 03:25:37;;;;;;;9.88;1.40;;;7.00;72.40;;;2.08;100.00;95750.69;4971036;28;20117;-58
2023/01/10 03:28:22;;;;;;;7.05;1.27;;;7.00;72.40;;;2.09;100.00;95754.91;4970576;28;20026;-58
2023/01/10 03:31:27;;;;;;;7.60;1.13;;;7.00;72.40;;;2.12;100.00;95767.63;4949632;28;20178;-58
2023/01/10 03:33:54;;;;;;;9.23;1.65;;;7.00;72.40;;;2.11;100.00;95767.84;4954119;28;20038;-57
2023/01/10 03:36:51;;;;;;;9.73;1.10;;;7.00;72.40;;;2.15;100.00;95774.31;4953363;28;20025;-58
2023/01/10 03:39:57;;;;;;;7.68;1.20;;;7.00;72.20;;;2.11;100.00;95783.63;4970855;28;20155;-55
2023/01/10 03:46:11;;;;;;;3.92;0.82;;;7.00;72.20;;;2.09;100.00;95789.88;4970919;28;20053;-57
2023/01/10 03:48:49;;;;;;;3.70;0.88;;;7.00;72.20;;;2.15;100.00;95800.59;4964400;28;20046;-57
2023/01/10 03:51:18;;;;;;;6.07;1.23;;;7.00;72.20;;;2.11;100.00;95804.66;4950953;28;20029;-56
2023/01/10 03:53:44;;;;;;;5.63;1.17;;;7.00;72.20;;;2.12;100.00;95812.31;4947158;28;20620;-58
2023/01/10 03:56:16;;;;;;;6.63;1.02;;;7.00;72.10;;;2.05;100.00;95819.41;4960605;28;20317;-57
2023/01/10 03:58:42;;;;;;;4.35;0.80;;;7.00;72.10;;;2.02;100.00;95812.75;4969298;28;20056;-54
2023/01/10 04:01:11;;;;;;;8.60;1.40;;;7.10;72.10;;;2.05;100.00;95814.16;4964262;28;20022;-58
2023/01/10 04:03:36;;;;;;;7.75;0.98;;;7.00;72.00;;;2.05;100.00;95820.22;4968951;28;20448;-57
2023/01/10 04:06:03;;;;;;;5.10;1.30;;;7.00;72.00;;;2.01;100.00;95831.34;4968080;28;20053;-58
2023/01/10 04:08:29;;;;;;;7.05;1.30;;;7.00;71.90;;;2.00;100.00;95833.16;4970484;28;20032;-56
2023/01/10 04:11:01;;;;;;;4.13;1.05;;;7.00;71.90;;;2.03;100.00;95840.63;4975867;28;20419;-54
2023/01/10 04:13:27;;;;;;;9.87;1.10;;;7.00;71.90;;;1.94;100.00;95851.56;4969392;28;20054;-53
2023/01/10 04:15:55;;;;;;;6.50;0.98;;;6.90;71.80;;;1.86;100.00;95844.69;4970396;28;20048;-53
2023/01/10 04:18:21;;;;;;;3.97;1.10;;;6.90;71.80;;;1.94;100.00;95839.22;4951463;28;20049;-55
2023/01/10 04:20:47;;;;;;;5.15;0.90;;;6.90;71.80;;;1.98;100.00;95856.22;4969869;28;20088;-55
2023/01/10 04:23:13;;;;;;;4.38;1.10;;;6.90;71.80;;;1.94;100.00;95854.97;4970361;28;20029;-58
2023/01/10 04:25:46;;;;;;;5.15;1.10;;;6.90;71.90;;;1.95;100.00;95866.31;4969625;28;20081;-56
2023/01/10 04:28:12;;;;;;;8.48;1.20;;;6.90;71.90;;;1.95;100.00;95863.69;4952028;28;20037;-57
2023/01/10 04:30:37;;;;;;;4.43;0.82;;;6.90;71.90;;;1.96;100.00;95874.00;4968436;28;20469;-56
2023/01/10 04:33:03;;;;;;;5.70;1.02;;;6.90;71.90;;;1.97;100.00;95874.78;4969114;28;20130;-55
2023/01/10 04:35:29;;;;;;;6.68;1.27;;;6.90;71.90;;;1.93;100.00;95877.03;4955210;28;20025;-54
2023/01/10 04:37:55;;;;;;;9.02;1.30;;;6.90;71.90;;;1.93;100.00;95873.59;4969650;28;20053;-58
2023/01/10 04:40:24;;;;;;;6.78;1.35;;;6.90;72.00;;;1.91;100.00;95884.28;4970630;28;20034;-57
2023/01/10 04:42:50;;;;;;;6.13;1.30;;;6.90;71.90;;;1.86;100.00;95886.72;4951907;28;20084;-58
2023/01/10 04:45:19;;;;;;;5.43;1.33;;;6.90;71.90;;;1.94;100.00;95886.50;4964116;28;20038;-58
2023/01/10 04:47:51;;;;;;;14.45;2.38;;;6.90;71.90;;;1.96;100.00;95897.63;4969180;28;20118;-57
2023/01/10 04:50:19;;;;;;;6.70;1.67;;;6.90;71.90;;;1.95;100.00;95900.47;4968305;28;20464;-54
2023/01/10 04:52:53;;;;;;;8.90;1.63;;;6.90;72.00;;;1.93;100.00;95898.03;4951403;28;20074;-54
2023/01/10 04:55:19;;;;;;;10.23;1.52;;;6.90;71.90;;;1.90;100.00;95895.81;4969428;28;20167;-54
2023/01/10 04:57:52;;;;;;;8.18;1.30;;;6.90;71.90;;;1.93;100.00;95897.25;4952561;28;20328;-53
2023/01/10 05:00:21;;;;;;;8.88;1.60;;;6.90;71.90;;;1.89;100.00;95902.09;4966924;28;20128;-53
2023/01/10 05:02:47;;;;;;;12.80;1.77;;;6.90;71.90;;;1.87;100.00;95908.56;4968252;28;20116;-55
2023/01/10 05:05:13;;;;;;;12.40;1.52;;;6.90;71.90;;;1.88;100.00;95918.88;4968574;28;20499;-54
2023/01/10 05:07:40;;;;;;;5.65;1.10;;;6.90;71.90;;;1.91;100.00;95922.91;4951726;28;20030;-53
2023/01/10 05:10:08;;;;;;;7.25;1.52;;;6.90;71.90;;;1.92;100.00;95940.28;4950846;28;20057;-52
2023/01/10 05:12:34;;;;;;;5.65;1.30;;;6.90;71.90;;;1.96;100.00;95944.94;4969438;28;20066;-52
2023/01/10 05:15:02;;;;;;;10.85;1.90;;;6.90;71.90;;;1.94;100.00;95938.25;4969378;28;20207;-57
2023/01/10 05:17:31;;;;;;;8.15;1.60;;;6.90;71.90;;;1.96;100.00;95942.31;4968313;28;20034;-55
2023/01/10 05:19:57;;;;;;;10.63;1.42;;;6.90;71.90;;;1.99;100.00;95956.88;4951388;28;20454;-56
2023/01/10 05:22:29;;;;;;;12.15;1.67;;;6.90;71.90;;;1.91;100.00;95959.66;4967096;28;20037;-57
2023/01/10 05:25:05;;;;;;;8.37;1.67;;;6.90;71.90;;;1.93;100.00;95955.84;4969715;28;20090;-55
2023/01/10 05:27:34;;;;;;;6.43;1.55;;;6.90;71.80;;;1.98;100.00;95963.13;4964288;28;20504;-56
2023/01/10 05:30:00;;;;;;;10.45;1.67;;;6.90;71.80;;;1.97;100.00;95979.88;4967890;28;20038;-57
2023/01/10 05:32:29;;;;;;;7.22;1.70;;;6.90;71.80;;;1.97;100.00;95974.63;4969051;28;20033;-57
2023/01/10 05:34:57;;;;;;;8.18;1.60;;;6.90;71.80;;;1.95;100.00;95981.94;4968498;28;20489;-54
2023/01/10 05:37:36;;;;;;;9.98;1.30;;;6.90;71.80;;;1.93;100.00;95983.94;4969733;28;20021;-57
2023/01/10 05:40:02;;;;;;;9.02;1.35;;;6.90;71.70;;;1.85;100.00;95993.63;4972360;28;20117;-55
2023/01/10 05:42:37;;;;;;;6.60;1.38;;;6.90;71.80;;;1.91;100.00;95993.81;4971290;28;20023;-57
2023/01/10 05:45:04;;;;;;;6.68;1.20;;;6.90;71.80;;;1.87;100.00;95988.16;4971893;28;20030;-55
2023/01/10 05:47:43;;;;;;;6.22;1.60;;;6.90;71.80;;;1.94;100.00;96002.13;4971671;28;20033;-53
2023/01/10 05:50:13;;;;;;;6.97;1.42;;;6.90;71.80;;;1.95;100.00;95995.88;4955412;28;20026;-54
2023/01/10 05:52:39;;;;;;;6.15;1.30;;;6.90;71.80;;;1.93;100.00;96000.50;4971160;28;20448;-55
2023/01/10 05:55:08;;;;;;;11.07;2.10;;;6.90;71.90;;;1.94;100.00;95998.69;4955513;28;20125;-56
2023/01/10 05:57:34;;;;;;;8.43;1.65;;;6.90;71.80;;;1.89;100.00;96009.81;4955132;28;20064;-53
2023/01/10 06:00:01;;;;;;;6.10;1.40;;;6.90;71.70;;;1.90;100.00;96008.78;4953189;28;20384;-58
2023/01/10 06:02:26;;;;;;;7.15;1.35;;;6.90;71.60;;;1.87;100.00;96017.06;4970503;28;20551;-55
2023/01/10 06:04:54;;;;;;;13.68;1.73;;;6.90;71.60;;;1.85;100.00;96021.72;4972944;28;20022;-52
2023/01/10 06:07:21;;;;;;;7.88;1.30;;;6.90;71.60;;;1.86;100.00;96028.59;4970923;28;20022;-56
2023/01/10 06:09:50;;;;;;;12.30;1.58;;;6.90;71.70;;;1.83;100.00;96026.38;4971946;28;20388;-56
2023/01/10 06:12:19;;;;;;;3.20;1.42;;;6.90;71.80;;;1.91;100.00;96025.34;5012156;23;20056;-51
2023/01/10 06:14:57;;;;;;;4.65;1.50;;;6.90;71.80;;;1.87;100.00;96024.16;5011731;28;20536;-52
2023/01/10 06:17:23;;;;;;;3.55;1.33;;;6.90;71.80;;;1.83;100.00;96035.06;5011062;28;20056;-52
2023/01/10 06:19:52;;;;;;;6.00;1.40;;;6.90;71.70;;;1.84;100.00;96033.22;4993919;28;20466;-51
2023/01/10 06:22:18;;;;;;;6.63;1.10;;;6.90;71.70;;;1.85;100.00;96040.94;5008996;28;20025;-55
2023/01/10 06:24:47;;;;;;;7.18;1.38;;;6.90;71.70;;;1.86;100.00;96052.25;5006495;28;20037;-53
2023/01/10 06:27:13;;;;;;;6.68;1.42;;;6.90;71.60;;;1.82;100.00;96057.09;4981558;28;20030;-53
2023/01/10 06:29:45;;;;;;;5.28;1.02;;;6.80;71.50;;;1.84;100.00;96067.38;4998993;28;20086;-51
2023/01/10 06:32:14;;;;;;;5.47;1.17;;;6.90;71.60;;;1.86;100.00;96073.25;4955255;28;20033;-54
2023/01/10 06:34:45;;;;;;;5.07;1.02;;;6.80;71.60;;;1.82;100.00;96078.09;4998404;28;20094;-56
2023/01/10 06:37:11;;;;;;;6.30;1.00;;;6.90;71.60;;;1.87;100.00;96085.38;4990598;28;20361;-51
2023/01/10 06:39:45;;;;;;;4.35;1.33;;;6.90;71.60;;;1.92;100.00;96093.47;4998292;28;20049;-56
2023/01/10 06:42:12;;;;;;;6.47;1.30;;;6.90;71.70;;;1.96;100.00;96092.06;4974149;28;20427;-54
2023/01/10 06:44:37;;;;;;;6.40;1.10;;;6.90;71.60;;;1.92;100.00;96096.13;4997018;28;20033;-52
2023/01/10 06:47:03;;;;;;;6.85;1.35;;;6.90;71.60;;;1.91;100.00;96096.28;4994320;28;20037;-54
2023/01/10 06:49:29;;;;;;;9.50;1.25;;;6.90;71.60;;;1.90;100.00;96087.59;4993885;28;20036;-54
2023/01/10 06:51:55;;;;;;;7.45;1.40;;;6.90;71.50;;;1.90;100.00;96103.38;4997326;28;20017;-50
2023/01/10 06:54:21;;;;;;;8.57;1.40;;;6.90;71.50;;;1.85;100.00;96109.22;4989226;28;20034;-54
2023/01/10 06:56:50;;;;;;;6.85;1.25;;;6.90;71.50;;;1.91;100.00;96107.59;4994134;28;20060;-54
2023/01/10 06:59:16;;;;;;;5.97;1.30;;;6.90;71.40;;;1.92;100.00;96108.44;4987198;28;20029;-50
2023/01/10 07:01:42;;;;;;;4.25;1.02;;;6.80;71.80;;;1.90;100.00;96113.88;4989577;28;20454;-52
2023/01/10 07:04:08;;;;;;;11.02;1.35;;;6.80;71.40;;;1.88;100.00;96115.06;4976391;28;20030;-50
2023/01/10 07:06:38;;;;;;;8.80;1.50;;;6.80;71.40;;;1.85;100.00;96122.38;4974704;28;20030;-50
2023/01/10 07:09:06;;;;;;;7.40;1.15;;;6.90;71.40;;;1.81;100.00;96121.13;4989146;28;20030;-53
2023/01/10 07:11:34;;;;;;;3.88;1.40;;;6.80;71.30;;;1.84;100.00;96120.72;4989579;28;20041;-48
2023/01/10 07:14:01;;;;;;;6.38;1.30;;;6.80;71.30;;;1.84;100.00;96136.50;4988904;28;20083;-51
2023/01/10 07:16:27;;;;;;;5.80;1.30;;;6.80;71.30;;;1.79;100.00;96140.72;4987729;28;20545;-57
2023/01/10 07:18:53;;;;;;;5.22;1.15;;;6.80;71.30;;;1.79;100.00;96148.63;4976450;28;20068;-48
2023/01/10 07:21:25;;;;;;;7.50;1.67;;;6.80;71.30;;;1.83;100.00;96145.38;4971000;28;20029;-48
2023/01/10 07:23:51;;;;;;;6.40;1.42;;;6.80;71.30;;;1.84;100.00;96152.25;4976593;28;20021;-48
2023/01/10 07:26:20;;;;;;;5.72;1.30;;;6.80;72.10;;;1.81;100.00;96142.13;4975502;28;20191;-50
2023/01/10 07:28:50;;;;;;;3.03;1.05;;;6.80;71.30;;;1.81;100.00;96138.69;4985282;28;20654;-51
2023/01/10 07:31:19;;;;;;;4.00;1.13;;;6.80;71.30;;;1.83;100.00;96147.22;4972613;28;20021;-52
2023/01/10 07:33:46;;;;;;;4.00;1.17;;;6.80;71.30;;;1.88;100.00;96146.59;4970123;28;20600;-54
2023/01/10 07:36:12;;;;;;;4.57;1.30;;;6.80;71.30;;;1.87;100.00;96151.06;4970159;28;20091;-55
2023/01/10 07:38:38;;;;;;;2.33;0.77;;;6.90;71.40;;;1.87;100.00;96161.56;4986523;28;20018;-54
2023/01/10 07:41:05;;;;;;;5.07;1.13;;;6.90;71.40;;;1.87;100.00;96168.63;4986480;28;20579;-50
2023/01/10 07:43:32;;;;;;;4.97;1.35;;;6.90;71.40;;;1.91;100.00;96172.50;4982225;28;20024;-55
2023/01/10 07:46:01;;;;;;;7.90;1.15;;;6.90;71.30;;;1.95;100.00;96177.19;4968804;28;20028;-53
2023/01/10 07:48:27;;;;;;;2.38;1.05;;;6.90;71.30;;;1.97;100.00;96180.41;4969961;28;20056;-56
2023/01/10 07:51:00;;;;;;;5.28;1.23;;;6.90;71.30;;;2.01;100.00;96180.84;4992678;28;20112;-56
2023/01/10 07:53:28;;;;;;;3.97;1.45;;;7.00;71.30;;;2.02;100.00;96182.47;4965397;28;20036;-52
2023/01/10 07:56:02;;;;;;;5.53;1.10;;;6.90;71.20;;;2.03;100.00;96184.06;4984966;28;20065;-59
2023/01/10 07:58:29;;;;;;;8.13;1.15;;;7.00;71.10;;;2.04;100.00;96190.97;4967811;28;20030;-53
2023/01/10 08:01:02;;;;;;;5.07;1.30;;;7.00;71.10;;;2.02;100.00;96193.78;4954156;28;20029;-51
2023/01/10 08:03:32;;;;;;;5.53;0.80;;;7.00;71.10;;;1.98;100.00;96186.50;4969974;28;20380;-54
2023/01/10 08:06:11;;;;;;;3.70;0.95;;;7.00;71.10;;;1.99;100.00;96196.78;4970663;28;20133;-55
2023/01/10 08:08:38;;;;;;;3.90;1.23;;;7.00;71.00;;;2.07;100.00;96195.81;4987141;28;20022;-49
2023/01/10 08:11:05;;;;;;;3.53;0.82;;;7.00;71.10;;;2.04;100.00;96188.34;4969139;28;20042;-52
2023/01/10 08:13:32;;;;;;;8.23;1.58;;;7.10;71.10;;;2.07;100.00;96191.38;4968618;28;20448;-50
2023/01/10 08:16:03;;;;;;;3.42;0.90;;;7.10;71.00;;;2.13;100.00;96195.03;4968523;28;20037;-54
2023/01/10 08:18:37;;;;;;;5.55;1.20;;;7.10;70.90;;;2.13;100.00;96194.22;4986828;28;20045;-51
2023/01/10 08:21:03;;;;;;;5.05;0.80;;;7.20;70.90;;;2.16;100.00;96202.50;4972379;28;20419;-49
2023/01/10 08:23:31;;;;;;;5.07;1.20;;;7.20;70.90;;;2.19;100.00;96203.94;4970282;28;20078;-50
2023/01/10 08:25:58;;;;;;;2.75;0.90;;;7.20;70.80;;;2.20;100.00;96210.84;4971005;28;20156;-54
2023/01/10 08:28:24;;;;;;;5.47;1.10;;;7.30;70.80;;;2.18;100.00;96216.28;4967433;28;20033;-51
2023/01/10 08:30:54;;;;;;;3.20;1.00;;;7.30;70.70;;;2.23;100.00;96221.78;4986198;28;20036;-58
2023/01/10 08:33:22;;;;;;;6.53;1.10;;;7.40;70.70;;;2.27;100.00;96227.44;4989929;28;20030;-52
2023/01/10 08:35:49;;;;;;;5.18;1.48;;;7.40;70.60;;;2.28;100.00;96226.41;4983966;28;20419;-52
2023/01/10 08:38:20;;;;;;;2.80;0.93;;;7.50;70.60;;;2.29;100.00;96228.06;4970131;28;20116;-55
2023/01/10 08:40:46;;;;;;;3.05;0.80;;;7.50;70.40;;;2.35;100.00;96243.06;4969401;28;20031;-51
2023/01/10 08:43:13;;;;;;;13.10;1.05;;;7.50;70.40;;;2.40;99.99;96242.44;4986608;28;20034;-47
2023/01/10 08:45:43;;;;;;;3.35;1.05;;;7.50;70.40;;;2.53;100.00;96242.50;4987821;28;20063;-51
2023/01/10 08:48:09;;;;;;;4.97;1.00;;;7.60;70.50;;;2.55;100.00;96243.91;4983661;28;20033;-53
2023/01/10 08:50:36;;;;;;;5.85;1.00;;;7.70;70.50;;;2.62;99.67;96240.50;4994676;28;20471;-54
2023/01/10 08:53:02;;;;;;;3.17;0.90;;;7.80;70.40;;;2.73;99.58;96247.81;4971035;28;20083;-53
2023/01/10 08:55:36;;;;;;;2.70;0.95;;;7.90;70.30;;;2.81;99.57;96254.72;4997607;28;20017;-48
2023/01/10 08:58:05;;;;;;;5.13;1.00;;;8.10;70.30;;;2.85;99.29;96245.41;5004150;28;20082;-49
2023/01/10 09:00:31;;;;;;;4.00;0.80;;;8.10;70.90;;;2.91;97.00;96260.38;4996596;28;20036;-51
2023/01/10 09:02:57;;;;;;;2.72;1.23;;;8.20;70.00;;;2.98;98.98;96256.78;4993622;28;20037;-55
2023/01/10 09:05:25;;;;;;;5.22;0.80;;;8.30;69.80;;;3.05;98.69;96255.97;4985992;28;20055;-49
2023/01/10 09:07:52;;;;;;;7.80;1.60;;;8.50;69.80;;;3.10;98.99;96251.72;4985660;28;20603;-58
2023/01/10 09:10:20;;;;;;;2.40;0.75;;;8.50;69.60;;;3.07;97.33;96259.19;4968581;28;20103;-51
2023/01/10 09:12:54;;;;;;;5.13;1.20;;;8.60;69.30;;;3.01;95.66;96256.38;4981673;28;20038;-52
2023/01/10 09:15:28;;;;;;;4.82;1.00;;;8.80;69.00;;;3.09;96.10;96268.53;4984764;28;20041;-50
2023/01/10 09:18:05;;;;;;;2.75;1.08;;;8.90;68.60;;;3.17;96.68;96264.91;4972394;28;20029;-50
2023/01/10 09:20:36;;;;;;;3.28;0.98;;;8.90;68.40;;;3.33;96.71;96266.34;4985783;28;20029;-50
2023/01/10 09:23:18;;;;;;;3.97;1.13;;;9.00;68.40;;;3.47;96.38;96274.00;4987632;28;20029;-53
2023/01/10 09:25:56;;;;;;;6.03;1.20;;;9.20;68.40;;;3.68;95.48;96273.00;4969925;28;20029;-51
2023/01/10 09:28:25;;;;;;;2.55;0.98;;;9.60;68.20;;;3.98;92.87;96271.75;4980707;28;20041;-57
2023/01/10 09:30:51;;;;;;;3.40;0.88;;;10.00;67.90;;;4.27;91.42;96266.00;4985069;28;20124;-53
2023/01/10 09:33:17;;;;;;;5.07;1.17;;;10.40;67.50;;;4.53;89.40;96266.91;4970755;28;20034;-52
2023/01/10 09:35:46;;;;;;;2.63;1.20;;;10.90;67.20;;;4.79;86.20;96268.59;4966523;28;20041;-50
2023/01/10 09:38:17;;;;;;;3.30;1.30;;;11.20;66.40;;;4.64;82.92;96268.91;4969285;28;21280;-49
2023/01/10 09:41:17;;;;;;;3.05;1.38;;;11.40;65.40;;;4.61;84.03;96277.25;4972483;28;20072;-48
2023/01/10 09:44:01;;;;;;;2.70;1.50;;;11.40;64.40;;;4.51;83.21;96277.69;4994492;28;20495;-50
2023/01/10 09:46:56;;;;;;;3.53;1.30;;;11.60;63.70;;;4.81;82.84;96277.13;4992572;28;20026;-50
2023/01/10 09:50:20;;;;;;;3.97;1.20;;;11.80;63.30;;;4.74;84.23;96286.94;4984779;28;20029;-56
2023/01/10 09:53:10;;;;;;;1.73;1.20;;;12.00;62.30;;;5.06;82.33;96285.94;4935473;29;20031;-51
2023/01/10 09:55:39;;;;;;;3.88;1.30;;;12.10;62.10;;;5.33;80.61;96288.41;4930930;29;20045;-49
2023/01/10 09:58:15;;;;;;;5.78;1.40;;;12.30;62.10;;;5.10;80.35;96289.75;4962985;28;20038;-52
2023/01/10 10:01:20;;;;;;;3.50;1.30;;;12.50;61.10;;;4.94;81.61;96292.09;4986567;28;20502;-52
2023/01/10 10:04:32;;;;;;;3.58;1.10;;;12.40;60.30;;;5.07;81.12;96289.38;4970175;28;20411;-53
2023/01/10 10:06:58;;;;;;;3.35;1.23;;;12.20;60.60;;;5.00;81.30;96297.34;4970401;28;20032;-53
2023/01/10 10:09:34;;;;;;;4.50;1.98;;;12.00;60.70;;;5.07;81.42;96306.03;4970551;28;20022;-49
2023/01/10 10:12:47;;;;;;;3.70;1.05;;;11.80;60.70;;;4.79;80.99;96306.38;4954413;28;20514;-49
2023/01/10 10:15:59;;;;;;;2.20;1.30;;;11.60;60.70;;;4.83;82.14;96301.50;4970892;28;20026;-50
2023/01/10 10:18:54;;;;;;;3.63;1.33;;;11.40;61.00;;;4.82;82.26;96299.88;4969221;28;20492;-51
2023/01/10 10:22:04;;;;;;;2.70;1.13;;;11.30;61.10;;;4.59;82.38;96305.66;4973408;28;20034;-50
2023/01/10 10:25:55;;;;;;;3.33;0.80;;;11.20;61.20;;;4.40;83.00;96304.72;4971747;28;20190;-55
2023/01/10 10:29:00;;;;;;;2.88;0.80;;;11.00;60.90;;;4.36;82.17;96295.59;4970291;28;20075;-53
2023/01/10 10:32:09;;;;;;;5.47;1.20;;;10.90;60.90;;;4.66;81.53;96295.88;4995474;28;20033;-50
2023/01/10 10:34:48;;;;;;;2.88;0.98;;;11.10;61.10;;;4.84;82.33;96293.38;4982302;28;20201;-52
2023/01/10 10:37:39;;;;;;;3.13;0.80;;;11.20;61.10;;;4.61;80.41;96295.72;4977682;28;20018;-50
2023/01/10 10:40:24;;;;;;;4.85;1.20;;;11.20;60.70;;;4.51;82.55;96304.06;4975790;28;20195;-50
2023/01/10 10:42:57;;;;;;;5.85;1.10;;;11.00;60.20;;;4.73;83.21;96288.75;4975921;28;20026;-50
2023/01/10 10:46:01;;;;;;;2.53;0.80;;;11.00;60.60;;;4.90;81.85;96283.00;4971132;28;20440;-53
2023/01/10 10:48:56;;;;;;;4.30;1.20;;;11.00;60.70;;;4.97;81.74;96289.03;4989460;28;20083;-53
2023/01/10 10:51:52;;;;;;;6.63;1.27;;;11.10;60.90;;;5.08;81.07;96291.81;4974562;28;20056;-55
2023/01/10 10:54:22;;;;;;;3.47;0.90;;;11.10;60.90;;;5.04;80.94;96293.25;4983753;28;20056;-52
2023/01/10 10:56:48;;;;;;;3.35;1.13;;;11.10;60.90;;;5.04;79.70;96280.03;4990997;28;20053;-52
2023/01/10 10:59:20;;;;;;;2.55;0.98;;;11.20;60.70;;;5.14;81.78;96278.78;4973097;28;20112;-50
2023/01/10 11:01:50;;;;;;;3.00;0.98;;;11.20;60.60;;;5.25;81.09;96284.19;4974622;28;20108;-50
2023/01/10 11:04:22;;;;;;;7.70;1.23;;;11.30;60.90;;;5.10;79.43;96279.19;4993984;28;20120;-50
2023/01/10 11:06:49;;;;;;;3.40;0.93;;;11.30;60.40;;;5.14;79.60;96279.59;4993080;28;20026;-51
2023/01/10 11:09:39;;;;;;;2.92;0.95;;;11.30;60.30;;;5.20;79.64;96278.75;4968701;28;20160;-55
2023/01/10 11:12:15;;;;;;;2.55;1.20;;;11.30;60.10;;;5.36;79.97;96276.59;4974634;28;20021;-54
2023/01/10 11:14:51;;;;;;;3.10;0.85;;;11.30;60.00;;;5.42;79.14;96273.91;4987952;28;20050;-53